Time;durP1;ratioP1;P1;durP2;ratioP2;P2;SDS_P1;SDS_P2;PMS_P1;PMS_P2;Temp;Humidity;BMP_temperature;BMP_pressure;BME280_temperature;BME280_humidity;BME280_pressure;Samples;Min_cycle;Max_cycle;Signal;HPM_P1;HPM_P2
2022/11/14 00:00:46;;;;;;;35.68;17.52;;;;;;;4.63;94.21;99655.63;1771132;81;25600;-67
2022/11/14 00:03:13;;;;;;;35.90;17.45;;;;;;;4.68;94.46;99644.02;1770617;80;27473;-67
2022/11/14 00:05:43;;;;;;;39.70;18.40;;;;;;;4.63;93.89;99648.31;1770612;81;25480;-67
2022/11/14 00:08:20;;;;;;;29.12;13.98;;;;;;;4.66;94.12;99638.84;1770808;81;25632;-67
2022/11/14 00:10:48;;;;;;;30.65;14.68;;;;;;;4.67;93.84;99641.02;1769975;80;25677;-67
2022/11/14 00:13:17;;;;;;;29.75;14.53;;;;;;;4.63;93.67;99641.52;1770785;81;25445;-67
2022/11/14 00:15:44;;;;;;;29.45;14.78;;;;;;;4.57;93.35;99641.16;1770883;80;27459;-67
2022/11/14 00:18:11;;;;;;;30.40;15.20;;;;;;;4.58;93.78;99640.64;1770756;81;25430;-67
2022/11/14 00:20:37;;;;;;;25.43;11.30;;;;;;;4.57;93.59;99646.59;1770625;80;25671;-67
2022/11/14 00:23:03;;;;;;;30.45;15.98;;;;;;;4.52;93.53;99643.27;1770480;81;25485;-67
2022/11/14 00:25:31;;;;;;;27.10;13.93;;;;;;;4.48;93.52;99640.77;1770609;81;25474;-67
2022/11/14 00:27:58;;;;;;;33.25;16.73;;;;;;;4.45;93.64;99635.01;1770552;81;27391;-67
2022/11/14 00:30:25;;;;;;;33.85;17.40;;;;;;;4.44;93.50;99638.80;1770508;81;25634;-67
2022/11/14 00:32:51;;;;;;;38.40;20.43;;;;;;;4.47;93.77;99635.59;1770595;81;25611;-66
2022/11/14 00:35:17;;;;;;;31.77;16.85;;;;;;;4.49;93.73;99638.33;1770885;81;25528;-67
2022/11/14 00:37:43;;;;;;;23.57;11.95;;;;;;;4.53;93.47;99637.31;1770857;80;25691;-67
2022/11/14 00:40:13;;;;;;;28.25;15.00;;;;;;;4.45;93.03;99634.48;1770754;80;27459;-67
2022/11/14 00:42:39;;;;;;;27.82;13.65;;;;;;;4.35;93.25;99636.49;1770967;80;26343;-67
2022/11/14 00:45:07;;;;;;;24.55;12.88;;;;;;;4.31;93.27;99638.06;1770871;80;25498;-67
2022/11/14 00:47:33;;;;;;;30.37;15.10;;;;;;;4.26;93.40;99639.36;1771075;81;25670;-67
2022/11/14 00:50:00;;;;;;;30.77;15.48;;;;;;;4.24;93.55;99631.47;1770650;80;25428;-67
2022/11/14 00:52:26;;;;;;;28.12;14.35;;;;;;;4.25;93.61;99629.03;1770750;80;27416;-67
2022/11/14 00:54:52;;;;;;;38.50;17.70;;;;;;;4.23;93.64;99627.09;1770654;81;25670;-67
2022/11/14 00:57:19;;;;;;;24.37;11.75;;;;;;;4.24;93.77;99635.54;1770754;80;25659;-67
2022/11/14 00:59:45;;;;;;;30.60;15.23;;;;;;;4.22;93.67;99625.45;1770705;80;25599;-67
2022/11/14 01:02:12;;;;;;;32.65;16.20;;;;;;;4.24;93.95;99632.83;1770780;80;25465;-67
2022/11/14 01:04:38;;;;;;;33.63;16.40;;;;;;;4.33;94.30;99629.16;1771121;81;27349;-67
2022/11/14 01:07:04;;;;;;;33.60;16.35;;;;;;;4.39;94.10;99624.09;1770640;81;25656;-68
2022/11/14 01:09:31;;;;;;;35.78;17.05;;;;;;;4.43;93.85;99614.09;1770735;80;25598;-67
2022/11/14 01:11:57;;;;;;;30.82;15.03;;;;;;;4.47;93.97;99613.35;1771022;80;25659;-67
2022/11/14 01:14:24;;;;;;;27.87;14.23;;;;;;;4.47;93.48;99613.35;1770897;81;25459;-67
2022/11/14 01:16:50;;;;;;;29.32;14.07;;;;;;;4.51;93.64;99611.77;1770724;80;27446;-67
2022/11/14 01:19:16;;;;;;;26.45;13.30;;;;;;;4.51;93.11;99609.06;1770563;81;25469;-66
2022/11/14 01:21:43;;;;;;;11.70;6.92;;;;;;;4.41;93.04;99602.13;1770719;81;25686;-67
2022/11/14 01:24:10;;;;;;;28.98;14.20;;;;;;;4.30;93.13;99603.88;1770653;80;25473;-66
2022/11/14 01:26:37;;;;;;;22.10;12.25;;;;;;;4.27;93.64;99607.88;1770970;81;25640;-66
2022/11/14 01:29:04;;;;;;;23.12;12.40;;;;;;;4.25;93.30;99603.78;1770670;81;29464;-66
2022/11/14 01:31:30;;;;;;;25.90;11.38;;;;;;;4.22;93.66;99602.92;1770772;81;25405;-66
2022/11/14 01:33:57;;;;;;;27.15;13.15;;;;;;;4.24;93.79;99605.69;1771134;80;25641;-67
2022/11/14 01:36:23;;;;;;;20.90;10.45;;;;;;;4.23;93.73;99605.39;1770676;80;25607;-66
2022/11/14 01:38:53;;;;;;;21.37;11.10;;;;;;;4.24;93.64;99592.13;1770982;80;25588;-66
2022/11/14 01:41:20;;;;;;;20.45;11.20;;;;;;;4.18;93.54;99591.76;1771536;81;28037;-67
2022/11/14 01:43:47;;;;;;;22.10;11.93;;;;;;;4.17;93.57;99595.52;1770635;81;25616;-66
2022/11/14 01:46:24;;;;;;;18.27;10.60;;;;;;;4.14;93.50;99591.95;1770911;80;25690;-66
2022/11/14 01:49:04;;;;;;;17.57;9.83;;;;;;;4.04;93.20;99582.30;1770904;80;25587;-66
2022/11/14 01:51:48;;;;;;;21.42;11.68;;;;;;;3.93;93.69;99576.72;1771476;81;25537;-66
2022/11/14 01:54:24;;;;;;;21.65;11.43;;;;;;;3.85;93.83;99578.47;1771052;80;27262;-66
2022/11/14 01:57:00;;;;;;;12.55;7.35;;;;;;;3.79;94.34;99572.15;1770959;81;25671;-66
2022/11/14 01:59:34;;;;;;;20.95;10.82;;;;;;;3.79;94.66;99567.25;1770922;80;25406;-66
2022/11/14 02:02:08;;;;;;;26.82;12.95;;;;;;;3.72;94.66;99565.55;1770985;80;25611;-66
2022/11/14 02:04:45;;;;;;;20.92;11.43;;;;;;;3.75;95.10;99565.59;1770734;81;25596;-66
2022/11/14 02:07:12;;;;;;;21.77;10.23;;;;;;;3.71;95.06;99566.59;1771024;80;27445;-66
2022/11/14 02:09:43;;;;;;;23.25;11.68;;;;;;;3.67;95.23;99560.55;1770580;81;25644;-66
2022/11/14 02:12:14;;;;;;;20.43;10.03;;;;;;;3.61;95.46;99552.36;1770372;80;25572;-66
2022/11/14 02:14:44;;;;;;;21.52;11.50;;;;;;;3.58;95.88;99548.78;1771122;80;25478;-66
2022/11/14 02:17:12;;;;;;;24.50;13.20;;;;;;;3.58;96.04;99542.00;1771567;80;25426;-66
2022/11/14 02:19:48;;;;;;;23.27;11.65;;;;;;;3.60;95.97;99538.50;1770992;81;27397;-66
2022/11/14 02:22:15;;;;;;;16.80;8.90;;;;;;;3.64;96.14;99538.84;1770632;80;27157;-66
2022/11/14 02:24:44;;;;;;;22.15;11.43;;;;;;;3.61;96.20;99537.97;1770707;81;25438;-66
2022/11/14 02:27:12;;;;;;;21.45;11.15;;;;;;;3.63;96.22;99539.36;1771019;80;25407;-66
2022/11/14 02:29:38;;;;;;;11.88;6.35;;;;;;;3.68;96.08;99535.91;1770973;81;25600;-67
2022/11/14 02:32:05;;;;;;;22.98;13.25;;;;;;;3.69;96.29;99524.55;1770823;81;29463;-65
2022/11/14 02:34:32;;;;;;;24.18;13.15;;;;;;;3.69;96.23;99537.58;1770552;80;25667;-65
2022/11/14 02:36:59;;;;;;;25.00;13.65;;;;;;;3.72;96.22;99530.83;1770709;80;25453;-66
2022/11/14 02:39:25;;;;;;;29.30;15.25;;;;;;;3.71;96.01;99531.36;1771179;81;25657;-65
2022/11/14 02:41:52;;;;;;;31.55;16.75;;;;;;;3.70;96.21;99531.60;1771152;81;25418;-66
2022/11/14 02:44:19;;;;;;;30.72;13.83;;;;;;;3.76;96.35;99527.91;1770614;80;27495;-66
2022/11/14 02:46:45;;;;;;;28.17;14.53;;;;;;;3.81;96.18;99520.39;1770841;80;25662;-67
2022/11/14 02:49:11;;;;;;;24.30;12.43;;;;;;;3.82;96.05;99522.02;1770539;80;25679;-67
2022/11/14 02:51:38;;;;;;;26.90;14.25;;;;;;;3.80;95.69;99522.83;1770888;81;25678;-67
2022/11/14 02:54:04;;;;;;;21.25;11.78;;;;;;;3.83;96.09;99527.20;1770905;81;25418;-67
2022/11/14 02:56:31;;;;;;;24.27;12.82;;;;;;;3.82;96.07;99519.31;1770891;80;27496;-67
2022/11/14 02:58:57;;;;;;;24.77;13.32;;;;;;;3.82;96.08;99529.63;1770535;81;25613;-67
2022/11/14 03:01:24;;;;;;;20.82;11.68;;;;;;;3.87;96.18;99531.61;1770633;81;25600;-65
2022/11/14 03:03:51;;;;;;;24.60;12.60;;;;;;;3.89;96.08;99526.77;1770588;80;25438;-66
2022/11/14 03:06:17;;;;;;;21.80;12.35;;;;;;;3.86;95.98;99523.19;1770802;80;25422;-66
2022/11/14 03:08:43;;;;;;;12.30;6.62;;;;;;;3.89;96.23;99526.21;1770573;80;27890;-65
2022/11/14 03:11:10;;;;;;;17.00;9.30;;;;;;;3.95;96.33;99529.84;1770558;81;25660;-66
2022/11/14 03:13:37;;;;;;;18.57;10.70;;;;;;;3.89;95.98;99518.63;1771038;81;25644;-67
2022/11/14 03:16:10;;;;;;;17.48;10.08;;;;;;;3.87;95.97;99519.41;1770644;80;25982;-66
2022/11/14 03:18:37;;;;;;;20.05;11.63;;;;;;;3.83;96.17;99520.42;1770991;81;25612;-66
2022/11/14 03:21:13;;;;;;;16.75;9.18;;;;;;;3.78;96.36;99514.10;1770622;81;27422;-66
2022/11/14 03:23:40;;;;;;;11.50;7.03;;;;;;;3.78;96.44;99512.75;1770806;81;25467;-65
2022/11/14 03:26:09;;;;;;;22.27;12.30;;;;;;;3.75;96.33;99514.08;1770595;81;25442;-65
2022/11/14 03:28:37;;;;;;;20.68;11.28;;;;;;;3.74;96.50;99511.89;1770577;81;25655;-65
2022/11/14 03:31:05;;;;;;;17.75;9.85;;;;;;;3.79;96.90;99519.28;1770962;81;25664;-65
2022/11/14 03:33:32;;;;;;;19.23;10.43;;;;;;;3.84;96.58;99524.80;1771120;81;27542;-66
2022/11/14 03:35:58;;;;;;;15.45;8.80;;;;;;;3.86;96.11;99532.68;1770431;81;25611;-66
2022/11/14 03:38:25;;;;;;;10.85;6.53;;;;;;;3.85;96.52;99526.95;1770627;81;25419;-66
2022/11/14 03:40:52;;;;;;;10.88;5.70;;;;;;;3.79;96.04;99514.38;1770610;81;27589;-66
2022/11/14 03:43:20;;;;;;;17.07;9.00;;;;;;;3.67;96.27;99507.17;1770947;81;25584;-67
2022/11/14 03:45:47;;;;;;;19.87;10.25;;;;;;;3.59;96.81;99499.44;1770902;81;27832;-66
2022/11/14 03:48:14;;;;;;;9.68;6.28;;;;;;;3.58;97.19;99505.94;1770914;80;26003;-66
2022/11/14 03:50:41;;;;;;;16.80;9.85;;;;;;;3.55;97.23;99504.55;1777616;80;25617;-66
2022/11/14 03:53:07;;;;;;;16.52;9.73;;;;;;;3.53;97.19;99492.29;1779352;80;25455;-67
2022/11/14 03:55:34;;;;;;;13.65;7.75;;;;;;;3.51;97.72;99492.02;1779373;80;25705;-66
2022/11/14 03:58:00;;;;;;;17.25;9.50;;;;;;;3.55;97.75;99496.94;1779369;80;27510;-67
2022/11/14 04:00:27;;;;;;;16.40;9.33;;;;;;;3.53;97.52;99501.77;1779696;80;25616;-66
2022/11/14 04:02:55;;;;;;;21.50;11.12;;;;;;;3.54;97.74;99504.23;1779607;80;25413;-66
2022/11/14 04:05:23;;;;;;;17.17;9.80;;;;;;;3.61;97.81;99507.63;1779674;80;26082;-66
2022/11/14 04:07:50;;;;;;;20.60;10.35;;;;;;;3.64;97.51;99500.89;1779833;80;25425;-66
2022/11/14 04:10:17;;;;;;;11.60;7.05;;;;;;;3.63;97.25;99497.34;1779568;80;27418;-66
2022/11/14 04:12:49;;;;;;;17.15;9.90;;;;;;;3.60;97.12;99494.33;1779444;80;25618;-66
2022/11/14 04:15:17;;;;;;;10.63;5.67;;;;;;;3.57;97.11;99485.33;1779851;80;25662;-66
2022/11/14 04:17:44;;;;;;;14.80;8.25;;;;;;;3.53;97.13;99489.05;1779745;80;25449;-66
2022/11/14 04:20:12;;;;;;;16.40;8.65;;;;;;;3.48;97.64;99498.45;1779572;80;25452;-67
2022/11/14 04:22:40;;;;;;;14.98;9.45;;;;;;;3.46;97.92;99500.08;1779929;80;28210;-66
2022/11/14 04:25:08;;;;;;;14.33;8.33;;;;;;;3.49;97.89;99491.98;1779799;80;25443;-66
2022/11/14 04:27:35;;;;;;;16.95;9.30;;;;;;;3.49;97.87;99486.56;1779578;80;25450;-66
2022/11/14 04:30:02;;;;;;;16.60;9.43;;;;;;;3.48;97.75;99489.80;1779450;80;25456;-67
2022/11/14 04:32:28;;;;;;;18.07;10.18;;;;;;;3.51;97.93;99493.89;1779799;80;25614;-66
2022/11/14 04:34:55;;;;;;;13.43;7.45;;;;;;;3.50;97.67;99490.37;1779548;80;27564;-65
2022/11/14 04:37:22;;;;;;;16.62;9.48;;;;;;;3.50;97.75;99481.41;1779421;80;25650;-66
2022/11/14 04:39:48;;;;;;;15.68;9.28;;;;;;;3.54;98.04;99492.59;1779508;80;25663;-66
2022/11/14 04:42:14;;;;;;;14.85;8.60;;;;;;;3.57;97.84;99486.69;1779783;80;25582;-65
2022/11/14 04:44:41;;;;;;;17.82;9.95;;;;;;;3.50;97.29;99494.45;1779528;80;25678;-65
2022/11/14 04:47:07;;;;;;;13.18;8.13;;;;;;;3.43;97.45;99489.73;1779884;80;27555;-66
2022/11/14 04:49:34;;;;;;;16.65;8.23;;;;;;;3.41;97.51;99478.83;1777604;80;25619;-66
2022/11/14 04:52:00;;;;;;;17.82;9.63;;;;;;;3.34;97.69;99479.80;1770741;81;25628;-65
2022/11/14 04:54:26;;;;;;;17.32;10.50;;;;;;;3.36;98.06;99478.20;1770799;80;25436;-66
2022/11/14 04:56:53;;;;;;;11.30;6.62;;;;;;;3.38;98.04;99480.98;1771314;81;25588;-66
2022/11/14 04:59:19;;;;;;;14.80;8.45;;;;;;;3.35;98.10;99481.47;1770731;81;27453;-65
2022/11/14 05:01:46;;;;;;;17.65;10.05;;;;;;;3.33;98.29;99480.88;1770590;81;25695;-66
2022/11/14 05:04:12;;;;;;;17.25;9.30;;;;;;;3.37;98.45;99473.89;1770861;80;25485;-66
2022/11/14 05:06:39;;;;;;;15.65;9.20;;;;;;;3.45;98.48;99474.58;1771017;81;25603;-66
2022/11/14 05:09:05;;;;;;;18.27;9.05;;;;;;;3.49;98.41;99475.72;1771151;80;25450;-66
2022/11/14 05:11:31;;;;;;;14.80;8.00;;;;;;;3.49;98.29;99487.91;1770826;81;27471;-65
2022/11/14 05:13:58;;;;;;;18.20;9.50;;;;;;;3.49;98.28;99475.72;1770560;81;25487;-65
2022/11/14 05:16:24;;;;;;;17.62;9.80;;;;;;;3.54;98.41;99473.63;1770882;80;25462;-66
2022/11/14 05:18:53;;;;;;;20.17;9.75;;;;;;;3.56;98.31;99475.02;1770719;80;25626;-66
2022/11/14 05:21:20;;;;;;;15.78;8.90;;;;;;;3.62;98.44;99472.67;1771042;81;25710;-66
2022/11/14 05:23:46;;;;;;;18.05;10.32;;;;;;;3.66;98.31;99466.23;1770984;81;27575;-66
2022/11/14 05:26:16;;;;;;;19.60;11.53;;;;;;;3.66;98.14;99471.66;1771156;81;25746;-66
2022/11/14 05:28:42;;;;;;;25.88;13.80;;;;;;;3.70;98.04;99471.96;1770623;81;25426;-66
2022/11/14 05:31:14;;;;;;;23.67;12.00;;;;;;;3.78;98.20;99459.87;1770671;81;25490;-66
2022/11/14 05:33:40;;;;;;;19.52;10.10;;;;;;;3.78;97.70;99459.87;1771149;80;25473;-66
2022/11/14 05:36:14;;;;;;;20.05;10.60;;;;;;;3.72;97.44;99463.05;1770684;80;27428;-66
2022/11/14 05:38:41;;;;;;;17.80;10.23;;;;;;;3.72;97.78;99467.95;1769729;80;25481;-65
2022/11/14 05:41:12;;;;;;;18.50;10.18;;;;;;;3.78;97.89;99477.50;1770702;81;25677;-66
2022/11/14 05:43:40;;;;;;;19.55;10.88;;;;;;;3.81;97.64;99481.91;1771029;80;25472;-66
2022/11/14 05:46:10;;;;;;;10.78;6.83;;;;;;;3.84;97.68;99470.56;1770731;81;25474;-66
2022/11/14 05:48:36;;;;;;;15.05;8.15;;;;;;;3.87;97.59;99486.34;1771456;81;27434;-66
2022/11/14 05:51:05;;;;;;;15.78;9.18;;;;;;;3.86;97.22;99494.16;1776603;80;27176;-65
2022/11/14 05:53:33;;;;;;;9.50;5.35;;;;;;;3.84;97.17;99499.03;1779849;80;25696;-65
2022/11/14 05:56:04;;;;;;;14.18;7.67;;;;;;;3.82;97.17;99494.91;1779694;80;25675;-66
2022/11/14 05:58:31;;;;;;;16.00;9.28;;;;;;;3.78;97.06;99493.24;1779958;80;25482;-65
2022/11/14 06:01:14;;;;;;;16.73;9.80;;;;;;;3.78;97.13;99499.19;1779868;80;27464;-66
2022/11/14 06:03:44;;;;;;;15.48;8.43;;;;;;;3.85;97.82;99496.59;1779942;80;25426;-65
2022/11/14 06:06:14;;;;;;;17.02;9.68;;;;;;;3.92;97.74;99494.25;1779428;80;25421;-66
2022/11/14 06:08:41;;;;;;;18.20;10.20;;;;;;;3.97;97.22;99508.70;1780199;80;25622;-65
2022/11/14 06:11:12;;;;;;;17.87;11.05;;;;;;;3.97;97.22;99508.70;1775445;80;25396;-65
2022/11/14 06:13:39;;;;;;;22.42;10.58;;;;;;;4.03;97.52;99500.09;1779882;80;27372;-68
2022/11/14 06:16:10;;;;;;;19.60;10.50;;;;;;;4.06;97.18;99494.73;1778412;80;25622;-66
2022/11/14 06:18:36;;;;;;;16.23;10.00;;;;;;;4.08;97.06;99495.28;1774844;80;25581;-66
2022/11/14 06:21:19;;;;;;;18.02;10.72;;;;;;;4.11;97.35;99496.97;1775074;80;25838;-65
2022/11/14 06:23:46;;;;;;;18.27;10.95;;;;;;;4.17;97.05;99492.42;1774731;80;25164;-65
2022/11/14 06:26:24;;;;;;;21.70;11.50;;;;;;;4.21;96.92;99488.69;1777464;80;28165;-64
2022/11/14 06:28:52;;;;;;;26.05;12.50;;;;;;;4.23;96.79;99494.70;1773752;80;25430;-65
2022/11/14 06:31:20;;;;;;;24.00;12.50;;;;;;;4.28;96.87;99487.96;1776629;80;25703;-66
2022/11/14 06:33:47;;;;;;;28.57;13.60;;;;;;;4.23;96.01;99490.63;1774521;80;25663;-65
2022/11/14 06:36:13;;;;;;;19.48;10.68;;;;;;;4.17;96.00;99499.21;1774528;80;25471;-66
2022/11/14 06:38:41;;;;;;;20.43;10.50;;;;;;;4.13;96.32;99499.44;1774408;80;27449;-66
2022/11/14 06:41:11;;;;;;;12.00;6.50;;;;;;;4.16;96.48;99501.64;1774772;80;25597;-65
2022/11/14 06:43:40;;;;;;;15.83;8.00;;;;;;;4.13;96.26;99496.20;1774777;80;25616;-65
2022/11/14 06:46:10;;;;;;;20.37;10.82;;;;;;;4.08;96.20;99503.42;1774576;80;25514;-66
2022/11/14 06:48:37;;;;;;;31.57;15.48;;;;;;;3.99;96.38;99500.31;1774642;80;25438;-65
2022/11/14 06:51:05;;;;;;;17.75;9.58;;;;;;;4.03;96.63;99508.23;1765326;80;27416;-66
2022/11/14 06:53:34;;;;;;;18.73;10.75;;;;;;;4.10;96.98;99502.12;1758304;81;25681;-65
2022/11/14 06:56:04;;;;;;;23.62;13.43;;;;;;;4.12;96.59;99500.52;1758505;81;25484;-65
2022/11/14 06:58:34;;;;;;;23.50;12.77;;;;;;;4.16;96.63;99498.10;1758827;81;25465;-66
2022/11/14 07:01:08;;;;;;;20.88;11.18;;;;;;;4.20;96.37;99485.70;1758634;81;25585;-66
2022/11/14 07:03:35;;;;;;;18.12;9.43;;;;;;;4.22;96.30;99489.80;1757693;81;28138;-66
2022/11/14 07:06:03;;;;;;;13.50;8.18;;;;;;;4.21;96.01;99487.33;1758217;81;25551;-70
2022/11/14 07:08:29;;;;;;;17.42;9.08;;;;;;;4.13;95.91;99488.05;1758242;81;25641;-66
2022/11/14 07:11:09;;;;;;;17.57;9.80;;;;;;;4.07;96.07;99483.63;1732807;81;25589;-67
2022/11/14 07:13:37;;;;;;;13.10;6.87;;;;;;;4.00;96.08;99480.28;1758260;81;25460;-66
2022/11/14 07:16:05;;;;;;;15.15;8.10;;;;;;;4.04;96.84;99479.23;1758456;81;27382;-66
2022/11/14 07:18:32;;;;;;;13.80;7.90;;;;;;;4.09;96.82;99479.31;1758459;81;25823;-66
2022/11/14 07:21:05;;;;;;;14.75;8.43;;;;;;;4.10;96.44;99478.23;1758405;81;25491;-66
2022/11/14 07:23:33;;;;;;;12.65;7.10;;;;;;;4.12;96.58;99474.74;1758477;81;25420;-66
2022/11/14 07:26:03;;;;;;;15.68;8.68;;;;;;;4.11;96.48;99476.63;1758296;81;25638;-66
2022/11/14 07:28:30;;;;;;;14.75;8.90;;;;;;;4.10;96.19;99476.88;1758183;81;28250;-66
2022/11/14 07:30:57;;;;;;;15.18;8.65;;;;;;;4.04;96.47;99481.41;1758527;81;25566;-66
2022/11/14 07:33:23;;;;;;;11.55;6.08;;;;;;;4.02;96.66;99471.34;1758444;81;25482;-66
2022/11/14 07:35:50;;;;;;;13.72;7.35;;;;;;;3.97;96.64;99473.45;1758056;81;25495;-66
2022/11/14 07:38:17;;;;;;;16.27;8.48;;;;;;;3.94;97.00;99462.30;1758762;81;25515;-66
2022/11/14 07:40:59;;;;;;;14.55;7.47;;;;;;;3.97;97.39;99469.93;1758152;81;27370;-67
2022/11/14 07:43:27;;;;;;;18.73;9.58;;;;;;;4.00;97.73;99473.50;1758561;81;25413;-66
2022/11/14 07:45:59;;;;;;;16.73;8.98;;;;;;;4.08;97.88;99462.73;1758237;81;25444;-66
2022/11/14 07:48:25;;;;;;;17.35;9.25;;;;;;;4.13;97.45;99468.23;1758044;81;25598;-66
2022/11/14 07:50:52;;;;;;;13.32;7.50;;;;;;;4.18;97.41;99462.89;1759668;79;25606;-66
2022/11/14 07:53:19;;;;;;;14.10;6.95;;;;;;;4.21;97.31;99466.98;1762211;81;27829;-66
2022/11/14 07:55:45;;;;;;;16.42;9.30;;;;;;;4.23;97.17;99465.66;1762444;81;25709;-67
2022/11/14 07:58:12;;;;;;;15.78;8.50;;;;;;;4.22;97.01;99455.05;1761913;81;25471;-69
2022/11/14 08:00:39;;;;;;;21.15;10.50;;;;;;;4.17;97.11;99450.38;1762093;81;25721;-67
2022/11/14 08:03:07;;;;;;;18.12;10.58;;;;;;;4.19;97.72;99463.16;1761873;81;25423;-67
2022/11/14 08:05:34;;;;;;;14.53;8.15;;;;;;;4.23;97.87;99461.58;1762456;81;27346;-66
2022/11/14 08:08:01;;;;;;;21.87;10.78;;;;;;;4.32;97.92;99461.16;1762297;81;25621;-68
2022/11/14 08:10:27;;;;;;;24.87;10.82;;;;;;;4.44;98.33;99451.52;1762739;81;25423;-67
2022/11/14 08:12:59;;;;;;;20.97;9.85;;;;;;;4.50;97.92;99449.16;1762190;81;25972;-67
2022/11/14 08:15:26;;;;;;;21.00;12.05;;;;;;;4.55;97.79;99447.84;1760461;81;25716;-67
2022/11/14 08:17:57;;;;;;;20.88;10.78;;;;;;;4.59;97.47;99441.38;1759968;81;27977;-68
2022/11/14 08:20:25;;;;;;;19.05;10.60;;;;;;;4.64;97.32;99438.73;1762352;81;25617;-66
2022/11/14 08:22:53;;;;;;;27.98;12.55;;;;;;;4.73;97.15;99437.73;1762195;81;25478;-68
2022/11/14 08:25:20;;;;;;;23.80;12.07;;;;;;;4.80;97.01;99439.70;1762241;81;25461;-67
2022/11/14 08:27:46;;;;;;;17.75;9.48;;;;;;;4.83;96.80;99435.11;1761931;81;25677;-67
2022/11/14 08:30:13;;;;;;;22.90;12.15;;;;;;;4.86;96.39;99434.60;1762302;81;28194;-67
2022/11/14 08:32:40;;;;;;;21.15;11.25;;;;;;;4.88;96.52;99429.75;1761909;81;25459;-67
2022/11/14 08:35:07;;;;;;;26.55;13.25;;;;;;;4.90;96.07;99421.34;1761856;81;25560;-67
2022/11/14 08:37:33;;;;;;;12.28;7.00;;;;;;;4.98;96.75;99424.94;1762157;81;25467;-66
2022/11/14 08:40:00;;;;;;;10.78;6.03;;;;;;;5.01;95.90;99426.34;1762344;81;25129;-67
2022/11/14 08:42:27;;;;;;;16.62;9.10;;;;;;;4.94;95.44;99429.25;1762028;81;27422;-67
2022/11/14 08:44:54;;;;;;;21.62;11.73;;;;;;;4.90;95.97;99424.86;1761995;81;25592;-67
2022/11/14 08:47:20;;;;;;;20.37;10.68;;;;;;;4.97;96.39;99427.91;1761956;81;25644;-67
2022/11/14 08:49:47;;;;;;;19.82;11.65;;;;;;;4.98;96.17;99417.34;1761979;81;25609;-66
2022/11/14 08:52:13;;;;;;;15.48;8.70;;;;;;;5.00;96.02;99425.50;1758876;81;25412;-66
2022/11/14 08:54:40;;;;;;;19.67;10.55;;;;;;;5.02;95.91;99416.57;1758352;81;27466;-67
2022/11/14 08:57:06;;;;;;;18.73;10.65;;;;;;;5.03;95.33;99421.44;1758194;81;25567;-67
2022/11/14 08:59:34;;;;;;;16.87;9.98;;;;;;;5.03;95.38;99428.23;1758571;81;25716;-67
2022/11/14 09:02:00;;;;;;;19.45;10.70;;;;;;;5.04;95.16;99430.42;1757900;81;25910;-67
2022/11/14 09:04:27;;;;;;;18.82;10.75;;;;;;;5.04;95.16;99431.25;1758540;81;25644;-66
2022/11/14 09:06:53;;;;;;;23.95;12.95;;;;;;;5.07;95.10;99427.99;1758553;81;27853;-67
2022/11/14 09:09:20;;;;;;;25.88;13.70;;;;;;;5.18;95.60;99429.47;1758674;81;25614;-68
2022/11/14 09:11:46;;;;;;;18.73;10.60;;;;;;;5.24;94.94;99427.08;1754870;81;25419;-67
2022/11/14 09:14:12;;;;;;;20.30;10.80;;;;;;;5.29;94.31;99431.17;1758093;81;25918;-68
2022/11/14 09:16:39;;;;;;;19.48;10.90;;;;;;;5.27;94.13;99427.91;1758262;81;25668;-68
2022/11/14 09:19:05;;;;;;;18.17;11.05;;;;;;;5.29;93.85;99424.38;1758738;81;27469;-68
2022/11/14 09:21:31;;;;;;;19.17;10.60;;;;;;;5.33;93.79;99430.13;1758437;81;25571;-68
2022/11/14 09:23:58;;;;;;;20.12;11.00;;;;;;;5.29;93.57;99427.09;1758697;81;25593;-68
2022/11/14 09:26:24;;;;;;;27.75;14.50;;;;;;;5.28;93.71;99426.83;1758614;81;25570;-69
2022/11/14 09:28:50;;;;;;;29.85;15.13;;;;;;;5.31;94.30;99429.02;1758577;81;25421;-68
2022/11/14 09:31:17;;;;;;;20.50;11.80;;;;;;;5.37;94.07;99427.16;1758441;81;28258;-69
2022/11/14 09:33:43;;;;;;;22.27;12.40;;;;;;;5.48;94.22;99425.34;1758541;81;26111;-69
2022/11/14 09:36:15;;;;;;;17.20;9.73;;;;;;;5.50;93.10;99415.84;1758625;81;25708;-69
2022/11/14 09:38:43;;;;;;;20.05;12.28;;;;;;;5.40;92.53;99410.33;1758313;81;26104;-69
2022/11/14 09:41:27;;;;;;;21.17;12.23;;;;;;;5.44;93.01;99407.36;1758218;81;25598;-69
2022/11/14 09:44:17;;;;;;;25.30;13.18;;;;;;;5.43;93.39;99411.70;1749591;81;29495;-69
2022/11/14 09:47:04;;;;;;;21.75;12.37;;;;;;;5.55;93.88;99409.62;1755583;81;26160;-69
2022/11/14 09:49:37;;;;;;;19.48;9.45;;;;;;;5.62;93.76;99399.89;1758942;81;25429;-68
2022/11/14 09:52:15;;;;;;;23.00;12.15;;;;;;;5.67;92.66;99397.73;1766644;81;25687;-68
2022/11/14 09:54:51;;;;;;;35.00;17.85;;;;;;;5.74;93.42;99383.36;1771993;81;25601;-69
2022/11/14 09:57:20;;;;;;;22.95;11.83;;;;;;;5.94;93.91;99379.94;1772594;81;28199;-69
2022/11/14 09:59:48;;;;;;;23.18;12.37;;;;;;;6.08;92.79;99376.22;1772492;81;25746;-69
2022/11/14 10:02:25;;;;;;;19.80;11.30;;;;;;;6.02;91.93;99369.09;1772340;81;25648;-69
2022/11/14 10:05:12;;;;;;;24.20;12.98;;;;;;;5.98;91.66;99365.23;1772531;81;25733;-69
2022/11/14 10:08:05;;;;;;;24.85;13.15;;;;;;;5.95;91.70;99354.35;1768423;81;25663;-69
2022/11/14 10:10:54;;;;;;;25.12;13.55;;;;;;;5.92;92.13;99354.88;1771592;81;27421;-69
2022/11/14 10:13:55;;;;;;;23.85;14.18;;;;;;;5.93;91.90;99344.83;1772405;80;25437;-69
2022/11/14 10:16:52;;;;;;;20.97;10.55;;;;;;;6.03;92.51;99351.67;1771663;81;25648;-69
2022/11/14 10:19:48;;;;;;;23.70;13.05;;;;;;;6.19;92.27;99349.83;1769443;81;25577;-69
2022/11/14 10:22:38;;;;;;;32.08;16.77;;;;;;;5.98;91.04;99347.02;1772584;80;25402;-69
2022/11/14 10:25:34;;;;;;;26.68;14.38;;;;;;;5.93;92.60;99335.31;1771921;81;27456;-69
2022/11/14 10:28:53;;;;;;;38.08;22.85;;;;;;;5.82;91.49;99338.52;1772375;81;25479;-69
2022/11/14 10:31:43;;;;;;;30.82;16.05;;;;;;;5.83;92.50;99338.79;1737671;81;25648;-66
2022/11/14 10:34:42;;;;;;;25.82;13.20;;;;;;;5.83;93.08;99327.38;1768921;80;25914;-68
2022/11/14 10:37:26;;;;;;;14.20;8.18;;;;;;;5.90;92.62;99314.34;1756458;81;25625;-70
2022/11/14 10:40:00;;;;;;;24.32;14.50;;;;;;;6.11;92.59;99313.63;1723604;83;27379;-71
2022/11/14 10:42:34;;;;;;;26.95;12.50;;;;;;;6.14;92.14;99309.02;1722164;83;25717;-71
2022/11/14 10:45:12;;;;;;;29.35;14.35;;;;;;;6.15;91.74;99306.56;1723421;82;25444;-69
2022/11/14 10:47:44;;;;;;;26.70;14.65;;;;;;;6.21;92.37;99307.37;1712334;83;26545;-70
2022/11/14 10:50:21;;;;;;;31.85;15.32;;;;;;;6.30;92.72;99296.81;1721743;83;25671;-71
2022/11/14 10:52:51;;;;;;;33.75;16.87;;;;;;;6.43;92.29;99294.09;1708134;83;28246;-70
2022/11/14 10:55:20;;;;;;;31.15;14.35;;;;;;;6.58;92.22;99294.11;1705038;84;26006;-70
2022/11/14 10:57:47;;;;;;;27.10;15.08;;;;;;;6.68;91.50;99298.73;1705232;84;25476;-70
2022/11/14 11:00:21;;;;;;;20.52;11.45;;;;;;;6.71;90.89;99290.02;1704770;84;26019;-71
2022/11/14 11:02:55;;;;;;;20.70;11.15;;;;;;;6.81;90.91;99295.20;1738003;82;25587;-68
2022/11/14 11:05:26;;;;;;;21.62;12.70;;;;;;;6.88;90.04;99282.94;1737993;82;27357;-68
2022/11/14 11:13:34;;;;;;;20.75;12.53;;;;;;;7.05;90.29;99275.58;1737683;82;25424;-69
2022/11/14 11:16:04;;;;;;;21.80;12.25;;;;;;;7.15;90.18;99272.30;1703721;84;25681;-68
2022/11/14 11:18:35;;;;;;;20.43;11.33;;;;;;;7.23;89.69;99266.80;1737963;82;27563;-68
2022/11/14 11:21:11;;;;;;;18.95;11.05;;;;;;;7.25;89.56;99267.88;1737957;82;25465;-68
2022/11/14 11:23:54;;;;;;;20.65;12.50;;;;;;;7.26;88.81;99272.27;1738340;82;25428;-67
2022/11/14 11:26:31;;;;;;;28.07;16.82;;;;;;;7.16;88.78;99266.27;1736957;82;26270;-67
2022/11/14 11:29:14;;;;;;;22.65;13.03;;;;;;;7.19;89.97;99265.72;1704636;84;25645;-67
2022/11/14 11:31:53;;;;;;;17.90;10.80;;;;;;;7.29;89.54;99259.44;1738163;82;27534;-67
2022/11/14 11:34:28;;;;;;;29.23;14.07;;;;;;;7.39;89.16;99258.58;1737734;82;25417;-67
2022/11/14 11:37:12;;;;;;;28.10;14.50;;;;;;;7.53;89.32;99253.36;1703647;84;25691;-66
2022/11/14 11:39:52;;;;;;;24.07;13.75;;;;;;;7.78;88.98;99250.26;1705095;84;25937;-67
2022/11/14 11:42:26;;;;;;;34.70;18.55;;;;;;;7.94;87.96;99255.64;1736904;82;25435;-67
2022/11/14 11:44:58;;;;;;;33.00;17.90;;;;;;;7.88;87.50;99251.56;1737629;82;27283;-66
2022/11/14 11:47:27;;;;;;;28.07;13.62;;;;;;;7.85;87.62;99247.20;1738153;82;27550;-66